createdAt,value
2017-04-24T00:15:52.000Z,20.3
2017-04-24T00:32:39.000Z,20
2017-04-24T00:49:26.000Z,20
2017-04-24T01:06:13.000Z,20
2017-04-24T01:22:59.000Z,20
2017-04-24T01:39:45.000Z,20
2017-04-24T01:56:32.000Z,19.7
2017-04-24T02:13:18.000Z,19.7
2017-04-24T02:30:04.000Z,19.7
2017-04-24T02:46:50.000Z,19.7
2017-04-24T03:03:36.000Z,19.7
2017-04-24T03:20:23.000Z,19.7
2017-04-24T03:37:09.000Z,19.4
2017-04-24T03:53:55.000Z,19.4
2017-04-24T04:10:40.000Z,19.4
2017-04-24T04:27:27.000Z,19.4
2017-04-24T04:44:13.000Z,19.4
2017-04-24T05:00:59.000Z,19.7
2017-04-24T05:17:45.000Z,19.7
2017-04-24T05:34:31.000Z,19.7
2017-04-24T05:51:17.000Z,19.7
2017-04-24T06:08:04.000Z,20
2017-04-24T06:24:51.000Z,20
2017-04-24T06:41:38.000Z,20
2017-04-24T06:58:25.000Z,20
2017-04-24T07:15:12.000Z,20
2017-04-24T07:31:58.000Z,20.3
2017-04-24T07:48:45.000Z,20.3
2017-04-24T08:05:33.000Z,20.6
2017-04-24T08:22:20.000Z,20.6
2017-04-24T08:39:08.000Z,20.6
2017-04-24T08:55:55.000Z,21
2017-04-24T09:12:43.000Z,21.3
2017-04-24T09:29:31.000Z,21.3
2017-04-24T09:46:20.000Z,21.6
2017-04-24T10:03:08.000Z,21.6
2017-04-24T10:19:56.000Z,21.9
2017-04-24T10:36:46.000Z,21.9
2017-04-24T10:51:53.000Z,21.9
2017-04-24T11:08:42.000Z,22.2
2017-04-24T11:25:31.000Z,22.2
2017-04-24T11:42:21.000Z,21.9
2017-04-24T11:59:10.000Z,21.9
2017-04-24T12:15:59.000Z,22.2
2017-04-24T12:32:48.000Z,22.2
2017-04-24T12:49:37.000Z,22.2
2017-04-24T13:06:26.000Z,22.2
2017-04-24T13:23:16.000Z,22.6
2017-04-24T13:40:06.000Z,22.2
2017-04-24T13:56:55.000Z,21.9
2017-04-24T14:13:44.000Z,21.9
2017-04-24T14:30:33.000Z,21.9
2017-04-24T14:47:23.000Z,21.9
2017-04-24T15:04:12.000Z,21.9
2017-04-24T15:21:01.000Z,21.9
2017-04-24T15:37:49.000Z,21.9
2017-04-24T15:54:38.000Z,21.9
2017-04-24T16:11:27.000Z,21.9
2017-04-24T16:28:17.000Z,21.6
2017-04-24T16:45:06.000Z,21.6
2017-04-24T17:01:54.000Z,21.6
2017-04-24T17:18:43.000Z,21.6
2017-04-24T17:35:33.000Z,21.6
2017-04-24T17:52:22.000Z,21.6
2017-04-24T18:09:10.000Z,21.6
2017-04-24T18:25:59.000Z,21.6
2017-04-24T18:42:48.000Z,21.6
2017-04-24T18:59:37.000Z,21.6
2017-04-24T19:16:26.000Z,21.3
2017-04-24T19:33:14.000Z,21.3
2017-04-24T19:50:01.000Z,21.3
2017-04-24T20:06:50.000Z,21.3
2017-04-24T20:23:38.000Z,21.3
2017-04-24T20:40:25.000Z,21.3
2017-04-24T20:57:13.000Z,21.6
2017-04-24T21:14:01.000Z,21.6
2017-04-24T21:30:50.000Z,21.6
2017-04-24T21:47:38.000Z,21.6
2017-04-24T22:04:26.000Z,21.3
2017-04-24T22:21:14.000Z,21.3
2017-04-24T22:38:02.000Z,21.3
2017-04-24T22:54:51.000Z,21.3
2017-04-24T23:11:39.000Z,21.3
2017-04-24T23:28:26.000Z,21
